createdAt,value
2023-04-23T00:01:48.195Z,99853.81
2023-04-23T00:04:54.285Z,99851.00
2023-04-23T00:08:00.726Z,99849.31
2023-04-23T00:11:03.959Z,99855.00
2023-04-23T00:14:06.854Z,99843.59
2023-04-23T00:17:09.762Z,99856.69
2023-04-23T00:20:12.743Z,99846.47
2023-04-23T00:23:16.415Z,99845.03
2023-04-23T00:26:19.735Z,99845.25
2023-04-23T00:29:22.732Z,99848.63
2023-04-23T00:32:25.589Z,99849.53
2023-04-23T00:35:28.553Z,99843.81
2023-04-23T00:38:31.356Z,99844.25
2023-04-23T00:41:34.591Z,99840.37
2023-04-23T00:44:39.089Z,99838.72
2023-04-23T00:47:42.645Z,99840.91
2023-04-23T00:50:46.723Z,99837.75
2023-04-23T00:53:49.626Z,99838.38
2023-04-23T00:56:53.402Z,99830.47
2023-04-23T00:59:58.468Z,99836.97
2023-04-23T01:03:01.663Z,99840.59
2023-04-23T01:06:05.392Z,99827.16
2023-04-23T01:09:10.025Z,99836.16
2023-04-23T01:12:15.110Z,99840.50
2023-04-23T01:15:17.763Z,99832.53
2023-04-23T01:18:21.264Z,99830.34
2023-04-23T01:21:26.317Z,99835.19
2023-04-23T01:24:31.453Z,99839.09
2023-04-23T01:27:36.113Z,99836.16
2023-04-23T01:30:40.834Z,99838.41
2023-04-23T01:33:45.347Z,99838.53
2023-04-23T01:36:49.028Z,99832.19
2023-04-23T01:39:52.286Z,99833.53
2023-04-23T01:42:56.587Z,99828.53
2023-04-23T01:45:59.796Z,99829.41
2023-04-23T01:49:04.129Z,99821.28
2023-04-23T01:52:06.862Z,99830.00
2023-04-23T01:55:09.703Z,99824.91
2023-04-23T01:58:12.848Z,99821.31
2023-04-23T02:01:15.913Z,99816.13
2023-04-23T02:04:19.559Z,99818.16
2023-04-23T02:07:22.406Z,99821.31
2023-04-23T02:10:26.167Z,99820.41
2023-04-23T02:13:29.096Z,99815.38
2023-04-23T02:16:32.932Z,99825.94
2023-04-23T02:19:36.024Z,99816.91
2023-04-23T02:22:42.889Z,99812.41
2023-04-23T02:25:46.786Z,99811.94
2023-04-23T02:28:49.698Z,99814.41
2023-04-23T02:31:52.870Z,99818.00
2023-04-23T02:34:56.183Z,99816.72
2023-04-23T02:37:59.080Z,99814.09
2023-04-23T02:41:01.896Z,99813.97
2023-04-23T02:44:04.803Z,99808.69
2023-04-23T02:47:07.458Z,99808.19
2023-04-23T02:50:10.912Z,99806.81
2023-04-23T02:53:15.693Z,99803.41
2023-04-23T02:56:19.828Z,99801.59
2023-04-23T02:59:22.634Z,99805.25
2023-04-23T03:02:25.900Z,99799.19
2023-04-23T03:05:28.619Z,99791.00
2023-04-23T03:08:31.574Z,99803.97
2023-04-23T03:11:34.233Z,99792.50
2023-04-23T03:14:37.640Z,99800.12
2023-04-23T03:17:40.689Z,99792.09
2023-04-23T03:20:44.326Z,99796.94
2023-04-23T03:23:46.951Z,99795.37
2023-04-23T03:26:50.018Z,99793.44
2023-04-23T03:29:52.555Z,99798.03
2023-04-23T03:32:57.158Z,99805.09
2023-04-23T03:36:00.292Z,99796.84
2023-04-23T03:39:04.204Z,99794.66
2023-04-23T03:42:09.557Z,99807.47
2023-04-23T03:45:16.668Z,99798.00
2023-04-23T03:48:20.823Z,99801.97
2023-04-23T03:51:24.265Z,99806.75
2023-04-23T03:54:28.269Z,99811.81
2023-04-23T03:57:33.228Z,99811.19
2023-04-23T04:00:37.014Z,99816.22
2023-04-23T04:03:40.135Z,99812.88
2023-04-23T04:06:42.872Z,99813.81
2023-04-23T04:09:47.163Z,99813.09
2023-04-23T04:12:49.803Z,99822.56
2023-04-23T04:15:52.735Z,99815.75
2023-04-23T04:18:56.530Z,99814.75
2023-04-23T04:22:02.495Z,99816.38
2023-04-23T04:25:05.837Z,99824.28
2023-04-23T04:28:11.873Z,99819.94
2023-04-23T04:31:16.087Z,99830.12
2023-04-23T04:34:19.030Z,99824.81
2023-04-23T04:37:21.981Z,99836.88
2023-04-23T04:40:27.106Z,99834.50
2023-04-23T04:43:32.574Z,99834.41
2023-04-23T04:46:40.610Z,99839.97
2023-04-23T04:49:43.423Z,99841.22
2023-04-23T04:52:46.257Z,99844.94
2023-04-23T04:55:48.923Z,99838.53
2023-04-23T04:58:52.127Z,99839.41
2023-04-23T05:01:54.930Z,99842.22
2023-04-23T05:04:58.431Z,99836.66
2023-04-23T05:08:04.376Z,99838.06
2023-04-23T05:11:07.605Z,99842.22
2023-04-23T05:14:10.868Z,99841.34
2023-04-23T05:17:13.764Z,99844.12
2023-04-23T05:20:16.511Z,99846.88
2023-04-23T05:23:19.484Z,99849.72
2023-04-23T05:26:22.038Z,99848.94
2023-04-23T05:29:25.587Z,99844.31
2023-04-23T05:32:28.507Z,99855.81
2023-04-23T05:35:32.061Z,99856.03
2023-04-23T05:38:34.880Z,99862.97
2023-04-23T05:41:38.166Z,99854.81
2023-04-23T05:44:42.195Z,99858.50
2023-04-23T05:47:45.577Z,99855.28
2023-04-23T05:50:49.673Z,99853.25
2023-04-23T05:53:52.988Z,99858.31
2023-04-23T05:56:55.651Z,99855.97
2023-04-23T05:59:58.763Z,99855.50
2023-04-23T06:03:02.037Z,99859.88
2023-04-23T06:06:05.062Z,99861.94
2023-04-23T06:09:07.836Z,99866.09
2023-04-23T06:12:11.464Z,99874.22
2023-04-23T06:15:14.622Z,99862.72
2023-04-23T06:18:17.664Z,99865.88
2023-04-23T06:21:20.709Z,99866.66
2023-04-23T06:24:23.805Z,99874.22
2023-04-23T06:27:27.231Z,99872.34
2023-04-23T06:30:30.783Z,99870.63
2023-04-23T06:33:36.423Z,99872.75
2023-04-23T06:36:40.662Z,99869.75
2023-04-23T06:39:43.785Z,99867.81
2023-04-23T06:42:47.674Z,99877.69
2023-04-23T06:45:51.438Z,99879.13
2023-04-23T06:48:54.687Z,99871.47
2023-04-23T06:51:57.927Z,99876.41
2023-04-23T06:55:00.922Z,99868.81
2023-04-23T06:58:03.771Z,99874.53
2023-04-23T07:01:07.609Z,99872.41
2023-04-23T07:04:11.199Z,99869.16
2023-04-23T07:07:14.072Z,99872.63
2023-04-23T07:10:18.115Z,99868.97
2023-04-23T07:13:21.364Z,99869.66
2023-04-23T07:16:25.602Z,99869.44
2023-04-23T07:19:28.612Z,99874.03
2023-04-23T07:22:31.212Z,99864.63
2023-04-23T07:25:34.248Z,99862.94
2023-04-23T07:28:37.016Z,99864.63
2023-04-23T07:31:41.859Z,99863.78
2023-04-23T07:34:45.032Z,99872.72
2023-04-23T07:37:48.298Z,99867.03
2023-04-23T07:40:51.212Z,99863.16
2023-04-23T07:43:54.305Z,99861.72
2023-04-23T07:46:57.223Z,99863.16
2023-04-23T07:50:00.220Z,99870.38
2023-04-23T07:53:03.263Z,99870.91
2023-04-23T07:56:06.413Z,99867.19
2023-04-23T07:59:09.939Z,99865.28
2023-04-23T08:02:13.060Z,99867.28
2023-04-23T08:05:16.198Z,99869.69
2023-04-23T08:08:19.083Z,99870.34
2023-04-23T08:11:22.324Z,99866.50
2023-04-23T08:14:25.133Z,99872.75
2023-04-23T08:17:28.143Z,99861.53
2023-04-23T08:20:32.358Z,99868.69
2023-04-23T08:23:35.432Z,99865.34
2023-04-23T08:26:38.008Z,99859.13
2023-04-23T08:29:41.269Z,99862.44
2023-04-23T08:32:44.059Z,99861.88
2023-04-23T08:35:47.045Z,99866.81
2023-04-23T08:38:49.651Z,99850.19
2023-04-23T08:41:56.052Z,99856.41
2023-04-23T08:44:59.540Z,99852.31
2023-04-23T08:48:02.974Z,99854.97
2023-04-23T08:51:08.600Z,99847.50
2023-04-23T08:54:18.623Z,99845.06
2023-04-23T08:57:22.197Z,99846.72
2023-04-23T09:00:26.067Z,99843.75
2023-04-23T09:03:29.482Z,99838.59
2023-04-23T09:06:33.205Z,99840.31
2023-04-23T09:09:36.883Z,99838.88
2023-04-23T09:12:44.001Z,99843.59
2023-04-23T09:15:46.628Z,99836.59
2023-04-23T09:18:51.590Z,99829.16
2023-04-23T09:21:55.077Z,99827.50
2023-04-23T09:25:02.264Z,99817.22
2023-04-23T09:28:07.967Z,99818.41
2023-04-23T09:31:14.887Z,99815.25
2023-04-23T09:34:21.079Z,99811.78
2023-04-23T09:37:26.790Z,99813.38
2023-04-23T09:40:30.902Z,99814.44
2023-04-23T09:43:34.878Z,99818.16
2023-04-23T09:46:45.340Z,99812.19
2023-04-23T09:49:52.656Z,99823.47
2023-04-23T09:52:56.959Z,99806.06
2023-04-23T09:56:01.290Z,99809.09
2023-04-23T09:59:47.660Z,99802.94
2023-04-23T10:02:53.463Z,99797.41
2023-04-23T10:06:01.709Z,99798.66
2023-04-23T10:09:05.482Z,99791.16
2023-04-23T10:12:21.101Z,99781.97
2023-04-23T10:15:34.908Z,99784.59
2023-04-23T10:18:38.703Z,99764.66
2023-04-23T10:21:53.405Z,99777.88
2023-04-23T10:25:04.001Z,99770.69
2023-04-23T10:28:09.258Z,99760.56
2023-04-23T10:31:20.022Z,99767.31
2023-04-23T10:34:25.698Z,99766.03
2023-04-23T10:37:29.791Z,99758.25
2023-04-23T10:40:38.302Z,99764.97
2023-04-23T10:43:41.774Z,99764.91
2023-04-23T10:47:00.643Z,99746.00
2023-04-23T10:50:23.189Z,99743.91
2023-04-23T10:53:26.815Z,99749.91
2023-04-23T10:56:32.203Z,99755.97
2023-04-23T10:59:38.628Z,99739.44
2023-04-23T11:02:47.639Z,99737.94
2023-04-23T11:05:50.481Z,99741.87
2023-04-23T11:08:54.291Z,99748.53
2023-04-23T11:12:01.532Z,99733.81
2023-04-23T11:15:12.700Z,99742.78
2023-04-23T11:18:15.369Z,99729.84
2023-04-23T11:21:19.090Z,99731.47
2023-04-23T11:24:29.368Z,99726.09
2023-04-23T11:27:33.630Z,99731.25
2023-04-23T11:30:36.597Z,99728.69
2023-04-23T11:33:39.498Z,99723.38
2023-04-23T11:36:43.003Z,99732.19
2023-04-23T11:39:47.788Z,99730.84
2023-04-23T11:42:53.889Z,99725.88
2023-04-23T11:45:57.362Z,99726.03
2023-04-23T11:49:01.064Z,99720.66
2023-04-23T11:52:05.479Z,99723.38
2023-04-23T11:55:09.656Z,99717.38
2023-04-23T11:58:12.732Z,99720.88
2023-04-23T12:01:15.511Z,99709.06
2023-04-23T12:04:23.823Z,99707.44
2023-04-23T12:07:34.692Z,99694.72
2023-04-23T12:10:52.659Z,99699.69
2023-04-23T12:13:57.882Z,99697.44
2023-04-23T12:17:11.204Z,99683.81
2023-04-23T12:20:22.041Z,99674.06
2023-04-23T12:23:28.967Z,99676.38
2023-04-23T12:26:31.752Z,99675.59
2023-04-23T12:29:36.434Z,99674.84
2023-04-23T12:32:39.261Z,99678.03
2023-04-23T12:35:44.597Z,99666.47
2023-04-23T12:38:47.720Z,99669.97
2023-04-23T12:41:59.767Z,99671.00
2023-04-23T12:45:10.108Z,99673.91
2023-04-23T12:48:14.081Z,99668.53
2023-04-23T12:51:17.720Z,99647.94
2023-04-23T12:54:21.023Z,99655.06
2023-04-23T12:57:24.850Z,99657.75
2023-04-23T13:00:27.753Z,99644.69
2023-04-23T13:03:31.410Z,99642.22
2023-04-23T13:06:34.859Z,99639.94
2023-04-23T13:09:37.536Z,99634.16
2023-04-23T13:12:43.714Z,99627.09
2023-04-23T13:15:47.251Z,99629.59
2023-04-23T13:18:52.336Z,99635.41
2023-04-23T13:21:54.896Z,99631.19
2023-04-23T13:24:58.627Z,99612.06
2023-04-23T13:28:01.272Z,99614.28
2023-04-23T13:31:05.326Z,99606.84
2023-04-23T13:34:08.210Z,99602.50
2023-04-23T13:37:11.203Z,99602.03
2023-04-23T13:40:15.067Z,99595.78
2023-04-23T13:43:18.868Z,99583.22
2023-04-23T13:46:21.756Z,99587.63
2023-04-23T13:49:28.087Z,99591.31
2023-04-23T13:52:32.159Z,99584.22
2023-04-23T13:55:35.134Z,99581.44
2023-04-23T13:58:37.951Z,99571.59
2023-04-23T14:01:40.834Z,99574.81
2023-04-23T14:04:43.706Z,99576.13
2023-04-23T14:07:47.641Z,99567.03
2023-04-23T14:10:50.835Z,99567.91
2023-04-23T14:13:54.446Z,99561.19
2023-04-23T14:16:57.367Z,99591.81
2023-04-23T14:20:00.145Z,99561.16
2023-04-23T14:23:11.465Z,99573.09
2023-04-23T14:29:46.714Z,99554.78
2023-04-23T14:32:50.518Z,99556.31
2023-04-23T14:35:53.648Z,99547.81
2023-04-23T14:38:56.339Z,99548.31
2023-04-23T14:42:00.057Z,99558.37
2023-04-23T14:45:03.003Z,99543.25
2023-04-23T14:48:06.217Z,99551.09
2023-04-23T14:51:09.829Z,99542.00
2023-04-23T14:54:12.830Z,99544.72
2023-04-23T14:57:15.370Z,99546.00
2023-04-23T15:00:21.334Z,99539.59
2023-04-23T15:03:24.363Z,99536.06
2023-04-23T15:06:27.520Z,99534.34
2023-04-23T15:09:30.840Z,99531.91
2023-04-23T15:12:43.297Z,99525.53
2023-04-23T15:15:51.511Z,99533.56
2023-04-23T15:18:55.466Z,99529.34
2023-04-23T15:21:58.430Z,99531.97
2023-04-23T15:25:01.340Z,99531.78
2023-04-23T15:28:04.589Z,99525.34
2023-04-23T15:31:07.601Z,99528.72
2023-04-23T15:34:12.229Z,99532.69
2023-04-23T15:37:15.704Z,99524.25
2023-04-23T15:40:18.545Z,99512.91
2023-04-23T15:43:21.428Z,99520.78
2023-04-23T15:46:23.999Z,99510.59
2023-04-23T15:49:33.296Z,99508.66
2023-04-23T15:52:36.376Z,99507.00
2023-04-23T15:55:39.797Z,99505.06
2023-04-23T15:58:42.424Z,99510.81
2023-04-23T16:01:45.650Z,99503.69
2023-04-23T16:04:50.874Z,99495.84
2023-04-23T16:07:53.424Z,99493.16
2023-04-23T16:10:58.125Z,99489.81
2023-04-23T16:14:00.836Z,99494.78
2023-04-23T16:17:03.784Z,99490.00
2023-04-23T16:20:07.981Z,99488.06
2023-04-23T16:23:11.081Z,99487.88
2023-04-23T16:26:13.938Z,99489.09
2023-04-23T16:29:22.843Z,99488.41
2023-04-23T16:32:25.816Z,99490.03
2023-04-23T16:35:28.679Z,99481.88
2023-04-23T16:38:31.213Z,99487.66
2023-04-23T16:41:34.685Z,99485.59
2023-04-23T16:44:37.504Z,99480.50
2023-04-23T16:47:40.757Z,99477.38
2023-04-23T16:50:44.529Z,99478.97
2023-04-23T16:53:48.626Z,99474.59
2023-04-23T16:56:51.701Z,99472.91
2023-04-23T16:59:54.927Z,99472.44
2023-04-23T17:02:57.997Z,99472.63
2023-04-23T17:06:28.293Z,99465.31
2023-04-23T17:09:31.750Z,99467.75
2023-04-23T17:12:34.942Z,99462.75
2023-04-23T17:15:37.684Z,99466.31
2023-04-23T17:18:42.034Z,99462.81
2023-04-23T17:21:44.944Z,99464.50
2023-04-23T17:24:47.876Z,99459.09
2023-04-23T17:27:51.108Z,99467.13
2023-04-23T17:30:55.932Z,99458.84
2023-04-23T17:33:58.900Z,99456.72
2023-04-23T17:37:01.826Z,99469.34
2023-04-23T17:40:09.736Z,99465.13
2023-04-23T17:43:13.824Z,99470.84
2023-04-23T17:46:16.942Z,99469.13
2023-04-23T17:49:20.249Z,99472.78
2023-04-23T17:52:23.242Z,99473.97
2023-04-23T17:55:26.668Z,99475.16
2023-04-23T17:58:30.711Z,99486.12
2023-04-23T18:01:37.370Z,99478.47
2023-04-23T18:04:41.269Z,99477.81
2023-04-23T18:07:44.611Z,99478.66
2023-04-23T18:10:47.929Z,99482.28
2023-04-23T18:13:53.518Z,99479.38
2023-04-23T18:16:59.419Z,99482.78
2023-04-23T18:20:02.687Z,99487.81
2023-04-23T18:23:06.874Z,99478.50
2023-04-23T18:26:09.517Z,99487.41
2023-04-23T18:29:12.834Z,99491.47
2023-04-23T18:32:27.458Z,99496.22
2023-04-23T18:35:36.815Z,99499.47
2023-04-23T18:38:45.227Z,99493.84
2023-04-23T18:41:51.405Z,99501.22
2023-04-23T18:44:55.866Z,99507.13
2023-04-23T18:48:06.215Z,99503.94
2023-04-23T18:51:18.659Z,99511.59
2023-04-23T18:54:22.697Z,99512.66
2023-04-23T18:57:27.411Z,99511.84
2023-04-23T19:00:31.494Z,99512.03
2023-04-23T19:03:34.640Z,99513.69
2023-04-23T19:06:40.513Z,99508.56
2023-04-23T19:09:43.825Z,99515.13
2023-04-23T19:12:47.569Z,99514.28
2023-04-23T19:15:50.639Z,99509.62
2023-04-23T19:18:54.969Z,99511.13
2023-04-23T19:21:57.730Z,99508.84
2023-04-23T19:25:00.953Z,99510.63
2023-04-23T19:28:04.173Z,99515.94
2023-04-23T19:31:07.914Z,99517.12
2023-04-23T19:34:10.831Z,99505.66
2023-04-23T19:37:15.135Z,99509.78
2023-04-23T19:40:18.219Z,99511.78
2023-04-23T19:43:21.192Z,99509.62
2023-04-23T19:46:23.911Z,99502.16
2023-04-23T19:49:27.084Z,99504.78
2023-04-23T19:52:30.117Z,99504.78
2023-04-23T19:55:34.123Z,99503.28
2023-04-23T19:58:36.951Z,99502.28
2023-04-23T20:01:40.804Z,99502.59
2023-04-23T20:04:44.130Z,99500.09
2023-04-23T20:07:46.813Z,99499.94
2023-04-23T20:10:49.912Z,99500.44
2023-04-23T20:13:54.535Z,99490.97
2023-04-23T20:16:58.911Z,99499.75
2023-04-23T20:20:02.838Z,99485.47
2023-04-23T20:23:06.233Z,99495.75
2023-04-23T20:26:08.992Z,99489.56
2023-04-23T20:29:13.739Z,99478.44
2023-04-23T20:32:16.686Z,99482.06
2023-04-23T20:35:20.031Z,99479.25
2023-04-23T20:38:23.979Z,99475.84
2023-04-23T20:41:32.086Z,99479.03
2023-04-23T20:44:34.542Z,99480.00
2023-04-23T20:47:37.715Z,99475.84
2023-04-23T20:50:40.935Z,99470.03
2023-04-23T20:53:44.019Z,99474.00
2023-04-23T20:56:46.603Z,99470.31
2023-04-23T20:59:49.474Z,99457.69
2023-04-23T21:02:54.661Z,99468.47
2023-04-23T21:05:58.643Z,99471.09
2023-04-23T21:09:01.299Z,99460.97
2023-04-23T21:12:04.763Z,99462.75
2023-04-23T21:15:08.766Z,99473.97
2023-04-23T21:18:11.670Z,99465.91
2023-04-23T21:21:16.856Z,99461.94
2023-04-23T21:24:19.918Z,99459.94
2023-04-23T21:27:23.090Z,99452.97
2023-04-23T21:30:34.571Z,99451.66
2023-04-23T21:33:37.223Z,99451.66
2023-04-23T21:36:40.193Z,99447.44
2023-04-23T21:39:43.007Z,99447.63
2023-04-23T21:42:47.599Z,99442.88
2023-04-23T21:45:50.256Z,99439.22
2023-04-23T21:48:53.711Z,99430.25
2023-04-23T21:51:57.265Z,99425.53
2023-04-23T21:55:00.477Z,99425.81
2023-04-23T21:58:16.481Z,99426.00
2023-04-23T22:01:20.223Z,99429.16
2023-04-23T22:04:23.390Z,99423.72
2023-04-23T22:07:26.890Z,99416.03
2023-04-23T22:10:31.515Z,99411.41
2023-04-23T22:13:36.237Z,99411.63
2023-04-23T22:16:39.646Z,99410.09
2023-04-23T22:19:42.447Z,99409.59
2023-04-23T22:22:46.268Z,99402.75
2023-04-23T22:25:50.528Z,99401.06
2023-04-23T22:28:53.427Z,99397.56
2023-04-23T22:31:56.179Z,99396.22
2023-04-23T22:34:59.364Z,99389.41
2023-04-23T22:38:02.016Z,99382.13
2023-04-23T22:41:04.892Z,99389.06
2023-04-23T22:44:07.515Z,99390.91
2023-04-23T22:47:10.628Z,99372.84
2023-04-23T22:50:13.712Z,99379.28
2023-04-23T22:53:17.609Z,99384.56
2023-04-23T22:56:20.090Z,99373.16
2023-04-23T22:59:23.093Z,99369.69
2023-04-23T23:02:26.753Z,99361.31
2023-04-23T23:05:29.734Z,99369.63
2023-04-23T23:08:32.246Z,99367.28
2023-04-23T23:11:35.198Z,99355.50
2023-04-23T23:14:38.097Z,99355.16
2023-04-23T23:17:41.297Z,99347.88
2023-04-23T23:20:45.210Z,99344.87
2023-04-23T23:23:48.534Z,99340.34
2023-04-23T23:26:51.225Z,99341.66
2023-04-23T23:29:54.085Z,99340.97
2023-04-23T23:32:57.529Z,99341.97
2023-04-23T23:36:00.479Z,99334.03
2023-04-23T23:39:02.990Z,99330.22
2023-04-23T23:42:05.897Z,99331.31
2023-04-23T23:45:10.035Z,99324.69
2023-04-23T23:48:13.072Z,99324.31
2023-04-23T23:51:16.341Z,99323.91
2023-04-23T23:54:19.481Z,99318.94
2023-04-23T23:57:22.178Z,99309.63
